createdAt,value
2018-02-20T00:01:20.607Z,48.35
2018-02-20T00:03:47.528Z,41.53
2018-02-20T00:06:14.353Z,45.67
2018-02-20T00:08:41.107Z,45.70
2018-02-20T00:11:07.868Z,48.17
2018-02-20T00:13:34.702Z,38.72
2018-02-20T00:16:01.476Z,48.22
2018-02-20T00:18:28.232Z,52.42
2018-02-20T00:20:54.991Z,49.58
2018-02-20T00:23:21.847Z,51.70
2018-02-20T00:25:48.606Z,52.45
2018-02-20T00:28:15.378Z,47.62
2018-02-20T00:30:42.132Z,52.42
2018-02-20T00:33:08.938Z,49.33
2018-02-20T00:35:35.703Z,52.50
2018-02-20T00:38:02.412Z,49.40
2018-02-20T00:40:29.163Z,46.42
2018-02-20T00:42:55.929Z,47.42
2018-02-20T00:45:22.703Z,53.10
2018-02-20T00:47:49.457Z,47.97
2018-02-20T00:50:16.285Z,46.72
2018-02-20T00:52:43.039Z,49.03
2018-02-20T00:55:09.755Z,43.47
2018-02-20T00:57:36.530Z,40.90
2018-02-20T01:00:03.338Z,53.28
2018-02-20T01:02:30.025Z,45.38
2018-02-20T01:04:56.793Z,46.53
2018-02-20T01:07:23.530Z,46.45
2018-02-20T01:09:50.286Z,41.03
2018-02-20T01:12:17.069Z,47.22
2018-02-20T01:14:43.865Z,46.20
2018-02-20T01:17:10.557Z,47.50
2018-02-20T01:19:37.359Z,48.80
2018-02-20T01:22:04.102Z,47.45
2018-02-20T01:24:30.923Z,47.47
2018-02-20T01:26:57.654Z,47.05
2018-02-20T01:29:24.403Z,44.35
2018-02-20T01:31:51.186Z,41.55
2018-02-20T01:34:17.974Z,43.85
2018-02-20T01:36:44.742Z,45.92
2018-02-20T01:39:11.513Z,47.00
2018-02-20T01:41:38.286Z,48.35
2018-02-20T01:44:05.036Z,46.03
2018-02-20T01:46:31.847Z,49.92
2018-02-20T01:48:58.536Z,51.08
2018-02-20T01:51:25.249Z,52.75
2018-02-20T01:53:51.966Z,41.83
2018-02-20T01:56:18.732Z,44.63
2018-02-20T01:58:45.608Z,48.33
2018-02-20T02:01:12.390Z,49.10
2018-02-20T02:03:39.279Z,51.72
2018-02-20T02:06:06.002Z,49.67
2018-02-20T02:08:32.705Z,42.30
2018-02-20T02:10:59.501Z,52.83
2018-02-20T02:13:26.234Z,46.63
2018-02-20T02:15:53.079Z,50.03
2018-02-20T02:18:19.838Z,46.58
2018-02-20T02:20:46.563Z,53.05
2018-02-20T02:23:13.348Z,54.80
2018-02-20T02:25:40.054Z,48.25
2018-02-20T02:28:06.768Z,53.30
2018-02-20T02:30:33.596Z,53.80
2018-02-20T02:33:00.428Z,57.53
2018-02-20T02:35:27.179Z,53.45
2018-02-20T02:37:53.942Z,53.90
2018-02-20T02:40:20.707Z,56.95
2018-02-20T02:42:47.444Z,54.45
2018-02-20T02:45:14.202Z,51.00
2018-02-20T02:47:40.965Z,53.58
2018-02-20T02:50:07.683Z,59.25
2018-02-20T02:52:34.472Z,53.70
2018-02-20T02:55:01.260Z,62.03
2018-02-20T02:57:28.015Z,55.80
2018-02-20T02:59:54.893Z,58.03
2018-02-20T03:04:54.876Z,58.85
2018-02-20T03:07:21.654Z,56.25
2018-02-20T03:09:48.403Z,57.22
2018-02-20T03:12:15.204Z,55.38
2018-02-20T03:14:41.902Z,51.92
2018-02-20T03:17:08.722Z,55.90
2018-02-20T03:19:35.484Z,60.80
2018-02-20T03:22:02.295Z,57.17
2018-02-20T03:24:29.111Z,55.65
2018-02-20T03:26:55.927Z,48.63
2018-02-20T03:29:22.742Z,53.60
2018-02-20T03:31:49.515Z,56.95
2018-02-20T03:34:16.380Z,52.08
2018-02-20T03:36:43.117Z,52.42
2018-02-20T03:39:09.794Z,53.72
2018-02-20T03:41:36.625Z,55.72
2018-02-20T03:44:03.455Z,51.85
2018-02-20T03:46:30.207Z,52.67
2018-02-20T03:48:56.934Z,55.85
2018-02-20T03:51:23.691Z,53.75
2018-02-20T03:53:50.520Z,58.42
2018-02-20T03:56:17.264Z,51.10
2018-02-20T03:58:44.057Z,52.88
2018-02-20T04:01:10.784Z,55.12
2018-02-20T04:03:37.588Z,54.03
2018-02-20T04:06:04.368Z,56.30
2018-02-20T04:08:31.114Z,55.03
2018-02-20T04:10:57.890Z,53.35
2018-02-20T04:13:24.667Z,53.33
2018-02-20T04:15:51.409Z,49.25
2018-02-20T04:18:18.227Z,53.25
2018-02-20T04:20:44.975Z,54.80
2018-02-20T04:23:11.741Z,53.30
2018-02-20T04:25:38.443Z,47.42
2018-02-20T04:28:05.185Z,49.65
2018-02-20T04:30:31.977Z,53.63
2018-02-20T04:32:58.664Z,52.05
2018-02-20T04:35:25.442Z,61.05
2018-02-20T04:37:52.175Z,53.55
2018-02-20T04:40:18.961Z,52.28
2018-02-20T04:42:45.681Z,54.33
2018-02-20T04:45:12.496Z,53.80
2018-02-20T04:47:39.248Z,52.95
2018-02-20T04:50:06.019Z,54.45
2018-02-20T04:52:32.821Z,47.80
2018-02-20T04:54:59.570Z,57.13
2018-02-20T04:57:26.389Z,59.00
2018-02-20T04:59:53.094Z,55.75
2018-02-20T05:02:19.798Z,56.37
2018-02-20T05:04:46.501Z,58.40
2018-02-20T05:07:13.245Z,55.47
2018-02-20T05:09:39.986Z,49.30
2018-02-20T05:12:06.735Z,55.97
2018-02-20T05:14:33.450Z,55.30
2018-02-20T05:17:00.318Z,57.90
2018-02-20T05:19:27.042Z,52.25
2018-02-20T05:21:53.812Z,56.95
2018-02-20T05:24:20.496Z,58.42
2018-02-20T05:26:47.282Z,51.63
2018-02-20T05:29:13.969Z,58.42
2018-02-20T05:31:40.712Z,53.67
2018-02-20T05:34:07.414Z,48.70
2018-02-20T05:36:34.205Z,58.15
2018-02-20T05:39:00.944Z,59.33
2018-02-20T05:41:27.688Z,58.35
2018-02-20T05:43:54.558Z,54.65
2018-02-20T05:46:21.257Z,51.10
2018-02-20T05:48:47.915Z,62.83
2018-02-20T05:51:14.556Z,51.45
2018-02-20T05:53:41.239Z,56.72
2018-02-20T05:56:07.876Z,57.42
2018-02-20T05:58:34.536Z,54.20
2018-02-20T06:01:01.220Z,54.03
2018-02-20T06:03:27.881Z,52.28
2018-02-20T06:05:54.519Z,62.53
2018-02-20T06:08:21.197Z,57.83
2018-02-20T06:10:47.873Z,61.25
2018-02-20T06:13:14.532Z,61.47
2018-02-20T06:15:41.201Z,56.25
2018-02-20T06:18:07.884Z,57.47
2018-02-20T06:20:34.530Z,58.42
2018-02-20T06:23:01.198Z,57.90
2018-02-20T06:25:27.884Z,57.38
2018-02-20T06:27:54.546Z,60.88
2018-02-20T06:30:21.193Z,58.33
2018-02-20T06:32:47.844Z,62.33
2018-02-20T06:35:14.504Z,55.60
2018-02-20T06:37:41.165Z,56.08
2018-02-20T06:40:07.836Z,59.00
2018-02-20T06:42:34.490Z,56.53
2018-02-20T06:45:01.164Z,56.72
2018-02-20T06:47:27.829Z,75.50
2018-02-20T06:49:54.506Z,61.30
2018-02-20T06:52:21.197Z,62.33
2018-02-20T06:54:47.868Z,58.75
2018-02-20T06:57:14.520Z,62.50
2018-02-20T06:59:41.245Z,55.75
2018-02-20T07:02:07.912Z,55.70
2018-02-20T07:04:34.588Z,52.90
2018-02-20T07:07:01.262Z,59.45
2018-02-20T07:09:27.920Z,59.15
2018-02-20T07:11:54.635Z,58.60
2018-02-20T07:14:21.270Z,64.07
2018-02-20T07:16:47.946Z,57.38
2018-02-20T07:19:14.610Z,54.28
2018-02-20T07:21:42.135Z,57.30
2018-02-20T07:24:08.795Z,50.67
2018-02-20T07:26:35.470Z,54.30
2018-02-20T07:29:02.168Z,54.60
2018-02-20T07:31:28.850Z,57.05
2018-02-20T07:33:55.521Z,49.75
2018-02-20T07:36:22.228Z,58.87
2018-02-20T07:38:48.899Z,57.47
2018-02-20T07:41:15.588Z,57.97
2018-02-20T07:43:42.248Z,55.88
2018-02-20T07:46:08.911Z,54.97
2018-02-20T07:48:35.569Z,52.10
2018-02-20T07:51:02.245Z,54.88
2018-02-20T07:53:28.908Z,55.80
2018-02-20T07:55:55.565Z,49.72
2018-02-20T07:58:22.260Z,58.05
2018-02-20T08:00:48.948Z,53.47
2018-02-20T08:03:15.647Z,50.50
2018-02-20T08:05:42.325Z,48.92
2018-02-20T08:08:09.009Z,47.28
2018-02-20T08:10:35.664Z,44.97
2018-02-20T08:13:02.336Z,49.92
2018-02-20T08:15:28.994Z,49.72
2018-02-20T08:17:55.684Z,51.15
2018-02-20T08:20:22.332Z,50.58
2018-02-20T08:22:49.049Z,51.75
2018-02-20T08:25:15.743Z,49.67
2018-02-20T08:27:42.429Z,47.15
2018-02-20T08:30:09.101Z,46.70
2018-02-20T08:32:35.801Z,46.80
2018-02-20T08:35:02.460Z,45.28
2018-02-20T08:37:29.156Z,44.92
2018-02-20T08:39:55.812Z,48.20
2018-02-20T08:42:22.477Z,44.65
2018-02-20T08:44:49.157Z,45.70
2018-02-20T08:47:15.808Z,43.28
2018-02-20T08:49:42.493Z,43.83
2018-02-20T08:52:09.148Z,46.47
2018-02-20T08:54:35.817Z,45.30
2018-02-20T08:57:02.481Z,44.70
2018-02-20T08:59:29.166Z,45.55
2018-02-20T09:01:55.821Z,46.07
2018-02-20T09:04:22.493Z,44.20
2018-02-20T09:06:49.145Z,47.93
2018-02-20T09:09:15.832Z,44.63
2018-02-20T09:11:42.498Z,44.90
2018-02-20T09:14:09.166Z,44.63
2018-02-20T09:16:35.815Z,44.50
2018-02-20T09:19:02.498Z,47.23
2018-02-20T09:21:29.177Z,44.57
2018-02-20T09:23:55.822Z,43.70
2018-02-20T09:26:22.509Z,44.97
2018-02-20T09:28:49.193Z,45.17
2018-02-20T09:31:15.865Z,46.07
2018-02-20T09:33:42.543Z,44.97
2018-02-20T09:36:09.222Z,45.47
2018-02-20T09:38:35.898Z,44.67
2018-02-20T09:41:02.582Z,45.37
2018-02-20T09:43:29.293Z,44.07
2018-02-20T09:45:55.930Z,44.23
2018-02-20T09:48:22.624Z,45.60
2018-02-20T09:50:49.287Z,44.53
2018-02-20T09:53:15.957Z,43.37
2018-02-20T09:55:42.637Z,43.80
2018-02-20T09:58:09.312Z,43.50
2018-02-20T10:00:36.014Z,41.23
2018-02-20T10:03:02.684Z,43.37
2018-02-20T10:05:29.364Z,42.33
2018-02-20T10:07:56.007Z,42.27
2018-02-20T10:10:22.891Z,42.07
2018-02-20T10:12:49.544Z,41.43
2018-02-20T10:15:16.209Z,42.10
2018-02-20T10:17:42.892Z,43.57
2018-02-20T10:20:09.589Z,42.80
2018-02-20T10:22:36.271Z,43.00
2018-02-20T10:25:02.946Z,44.37
2018-02-20T10:27:29.656Z,42.77
2018-02-20T10:29:56.343Z,41.83
2018-02-20T10:32:23.033Z,42.07
2018-02-20T10:34:49.699Z,42.47
2018-02-20T10:37:16.378Z,45.17
2018-02-20T10:39:43.050Z,42.50
2018-02-20T10:42:09.725Z,43.20
2018-02-20T10:44:36.428Z,43.37
2018-02-20T10:47:03.114Z,44.27
2018-02-20T10:49:29.772Z,42.87
2018-02-20T10:51:56.461Z,43.53
2018-02-20T10:54:23.119Z,45.43
2018-02-20T10:56:49.843Z,44.73
2018-02-20T10:59:16.541Z,48.00
2018-02-20T11:01:43.218Z,50.90
2018-02-20T11:04:09.894Z,50.10
2018-02-20T11:06:36.568Z,51.77
2018-02-20T11:09:03.244Z,51.00
2018-02-20T11:11:29.925Z,54.27
2018-02-20T11:13:56.614Z,52.70
2018-02-20T11:16:23.334Z,52.23
2018-02-20T11:18:50.020Z,52.73
2018-02-20T11:21:16.681Z,53.33
2018-02-20T11:23:43.501Z,52.00
2018-02-20T11:26:10.161Z,50.37
2018-02-20T11:28:36.881Z,48.63
2018-02-20T11:31:03.546Z,49.00
2018-02-20T11:33:30.245Z,48.20
2018-02-20T11:35:56.915Z,46.10
2018-02-20T11:38:23.584Z,49.47
2018-02-20T11:40:50.275Z,48.63
2018-02-20T11:43:16.956Z,47.33
2018-02-20T11:45:43.611Z,53.93
2018-02-20T11:48:10.302Z,49.57
2018-02-20T11:50:36.985Z,53.72
2018-02-20T11:53:03.649Z,50.95
2018-02-20T11:55:30.335Z,53.80
2018-02-20T11:57:57.080Z,55.95
2018-02-20T12:00:23.772Z,54.63
2018-02-20T12:02:50.449Z,59.45
2018-02-20T12:05:17.180Z,55.38
2018-02-20T12:07:43.855Z,58.35
2018-02-20T12:10:10.609Z,60.40
2018-02-20T12:12:37.399Z,53.00
2018-02-20T12:15:04.089Z,51.58
2018-02-20T12:17:30.753Z,50.42
2018-02-20T12:19:57.428Z,55.45
2018-02-20T12:22:24.148Z,58.17
2018-02-20T12:24:50.834Z,58.30
2018-02-20T12:27:17.510Z,54.35
2018-02-20T12:29:44.254Z,51.08
2018-02-20T12:32:10.938Z,52.00
2018-02-20T12:34:37.627Z,52.17
2018-02-20T12:37:04.288Z,55.85
2018-02-20T12:39:30.984Z,60.97
2018-02-20T12:41:57.633Z,61.00
2018-02-20T12:44:24.290Z,56.85
2018-02-20T12:46:51.068Z,60.00
2018-02-20T12:49:17.766Z,56.97
2018-02-20T12:51:44.446Z,62.92
2018-02-20T12:54:11.103Z,63.53
2018-02-20T12:56:37.769Z,58.58
2018-02-20T12:59:04.480Z,56.70
2018-02-20T13:01:31.141Z,55.45
2018-02-20T13:03:57.800Z,56.72
2018-02-20T13:06:24.470Z,59.13
2018-02-20T13:08:51.134Z,58.65
2018-02-20T13:11:17.801Z,58.00
2018-02-20T13:13:44.462Z,61.85
2018-02-20T13:16:11.124Z,59.90
2018-02-20T13:18:37.765Z,65.97
2018-02-20T13:21:04.448Z,62.38
2018-02-20T13:23:31.381Z,57.38
2018-02-20T13:25:58.098Z,56.35
2018-02-20T13:28:24.745Z,55.28
2018-02-20T13:30:51.426Z,58.70
2018-02-20T13:33:18.098Z,56.33
2018-02-20T13:35:44.766Z,52.80
2018-02-20T13:38:11.411Z,51.08
2018-02-20T13:40:38.094Z,56.63
2018-02-20T13:43:04.770Z,54.00
2018-02-20T13:45:31.434Z,54.63
2018-02-20T13:47:58.113Z,58.40
2018-02-20T13:50:24.811Z,55.12
2018-02-20T13:52:51.471Z,59.42
2018-02-20T13:55:18.135Z,62.13
2018-02-20T13:57:44.827Z,63.85
2018-02-20T14:00:11.482Z,62.50
2018-02-20T14:02:38.143Z,58.10
2018-02-20T14:05:04.818Z,59.33
2018-02-20T14:07:31.500Z,59.70
2018-02-20T14:09:58.160Z,61.50
2018-02-20T14:12:24.831Z,56.58
2018-02-20T14:14:51.481Z,61.70
2018-02-20T14:17:18.164Z,54.58
2018-02-20T14:19:44.824Z,57.53
2018-02-20T14:22:11.500Z,58.40
2018-02-20T14:24:38.160Z,54.63
2018-02-20T14:27:04.821Z,61.78
2018-02-20T14:29:31.473Z,57.28
2018-02-20T14:31:58.157Z,50.85
2018-02-20T14:34:24.822Z,54.10
2018-02-20T14:36:51.485Z,59.50
2018-02-20T14:39:18.160Z,57.13
2018-02-20T14:41:44.819Z,56.92
2018-02-20T14:44:11.497Z,66.68
2018-02-20T14:46:38.162Z,70.35
2018-02-20T14:49:04.829Z,55.58
2018-02-20T14:51:31.487Z,67.65
2018-02-20T14:53:58.303Z,62.90
2018-02-20T14:56:24.973Z,53.42
2018-02-20T14:58:51.637Z,54.58
2018-02-20T15:01:18.299Z,57.92
2018-02-20T15:03:44.977Z,64.93
2018-02-20T15:06:11.638Z,57.58
2018-02-20T15:08:38.316Z,58.90
2018-02-20T15:11:05.026Z,59.47
2018-02-20T15:13:31.702Z,56.30
2018-02-20T15:15:58.402Z,62.10
2018-02-20T15:18:25.078Z,58.35
2018-02-20T15:20:51.755Z,64.90
2018-02-20T15:23:18.438Z,59.70
2018-02-20T15:25:45.118Z,58.67
2018-02-20T15:28:11.829Z,62.42
2018-02-20T15:30:38.476Z,65.32
2018-02-20T15:33:05.116Z,63.20
2018-02-20T15:35:31.788Z,64.43
2018-02-20T15:37:58.446Z,65.78
2018-02-20T15:40:25.118Z,59.38
2018-02-20T15:42:51.831Z,62.28
2018-02-20T15:45:18.497Z,61.35
2018-02-20T15:47:45.153Z,66.12
2018-02-20T15:50:11.906Z,63.50
2018-02-20T15:52:38.565Z,66.50
2018-02-20T15:55:05.251Z,69.10
2018-02-20T15:57:31.946Z,62.60
2018-02-20T15:59:58.616Z,68.22
2018-02-20T16:02:25.287Z,72.32
2018-02-20T16:04:52.033Z,66.03
2018-02-20T16:07:18.721Z,75.95
2018-02-20T16:09:45.400Z,76.95
2018-02-20T16:12:12.066Z,73.95
2018-02-20T16:14:38.757Z,72.35
2018-02-20T16:17:06.307Z,71.75
2018-02-20T16:19:32.965Z,74.47
2018-02-20T16:21:59.638Z,70.05
2018-02-20T16:24:26.308Z,71.45
2018-02-20T16:26:52.990Z,121.28
2018-02-20T16:29:19.682Z,85.75
2018-02-20T16:31:46.363Z,90.82
2018-02-20T16:34:13.050Z,82.43
2018-02-20T16:36:39.739Z,93.40
2018-02-20T16:39:06.406Z,82.25
2018-02-20T16:41:33.205Z,75.30
2018-02-20T16:44:00.371Z,81.45
2018-02-20T16:46:27.081Z,82.10
2018-02-20T16:48:53.753Z,77.68
2018-02-20T16:51:29.076Z,82.15
2018-02-20T16:53:56.930Z,71.12
2018-02-20T16:56:29.459Z,87.30
2018-02-20T16:58:56.580Z,77.20
2018-02-20T17:01:23.352Z,80.00
2018-02-20T17:03:50.040Z,71.10
2018-02-20T17:06:16.713Z,77.90
2018-02-20T17:08:51.809Z,71.10
2018-02-20T17:11:18.499Z,70.85
2018-02-20T17:13:45.173Z,71.93
2018-02-20T17:16:12.205Z,76.50
2018-02-20T17:18:38.928Z,73.25
2018-02-20T17:21:05.610Z,73.30
2018-02-20T17:23:32.338Z,86.72
2018-02-20T17:25:59.029Z,73.25
2018-02-20T17:28:25.684Z,87.43
2018-02-20T17:30:54.879Z,87.50
2018-02-20T17:33:23.045Z,84.15
2018-02-20T17:35:49.731Z,81.80
2018-02-20T17:38:16.575Z,95.15
2018-02-20T17:40:43.236Z,84.22
2018-02-20T17:43:09.933Z,88.05
2018-02-20T17:45:36.575Z,88.80
2018-02-20T17:48:03.235Z,92.65
2018-02-20T17:50:29.906Z,84.75
2018-02-20T17:52:56.658Z,99.57
2018-02-20T17:55:23.310Z,93.65
2018-02-20T17:57:49.986Z,97.93
2018-02-20T18:00:17.320Z,85.93
2018-02-20T18:02:44.079Z,95.50
2018-02-20T18:05:10.754Z,90.47
2018-02-20T18:07:37.468Z,87.70
2018-02-20T18:10:04.122Z,91.25
2018-02-20T18:12:30.785Z,93.85
2018-02-20T18:14:57.473Z,92.62
2018-02-20T18:17:24.560Z,94.93
2018-02-20T18:19:51.245Z,83.45
2018-02-20T18:22:17.946Z,91.65
2018-02-20T18:24:44.616Z,90.47
2018-02-20T18:27:11.280Z,94.75
2018-02-20T18:29:37.960Z,91.07
2018-02-20T18:32:04.608Z,99.18
2018-02-20T18:34:31.394Z,95.32
2018-02-20T18:37:02.109Z,105.15
2018-02-20T18:39:28.817Z,91.18
2018-02-20T18:41:55.514Z,90.28
2018-02-20T18:44:22.164Z,95.78
2018-02-20T18:46:48.862Z,93.55
2018-02-20T18:49:15.543Z,102.07
2018-02-20T18:51:42.214Z,89.65
2018-02-20T18:54:08.877Z,95.18
2018-02-20T18:56:35.546Z,96.53
2018-02-20T18:59:02.229Z,97.82
2018-02-20T19:01:28.889Z,108.18
2018-02-20T19:03:55.578Z,92.53
2018-02-20T19:06:22.227Z,93.53
2018-02-20T19:08:48.885Z,106.68
2018-02-20T19:11:16.273Z,92.85
2018-02-20T19:13:42.969Z,102.40
2018-02-20T19:16:09.644Z,109.18
2018-02-20T19:18:36.320Z,97.12
2018-02-20T19:21:03.006Z,97.78
2018-02-20T19:23:29.897Z,101.97
2018-02-20T19:25:56.577Z,98.47
2018-02-20T19:28:23.245Z,100.95
2018-02-20T19:30:50.057Z,90.57
2018-02-20T19:33:17.208Z,98.55
2018-02-20T19:35:43.947Z,113.75
2018-02-20T19:38:10.587Z,96.93
2018-02-20T19:40:37.281Z,104.47
2018-02-20T19:43:03.961Z,105.03
2018-02-20T19:45:30.664Z,106.95
2018-02-20T19:47:57.398Z,116.12
2018-02-20T19:50:24.085Z,106.07
2018-02-20T19:52:50.904Z,107.18
2018-02-20T19:55:17.942Z,103.15
2018-02-20T19:57:44.923Z,106.80
2018-02-20T20:00:12.013Z,111.78
2018-02-20T20:02:38.765Z,116.75
2018-02-20T20:05:05.561Z,108.97
2018-02-20T20:07:32.677Z,103.35
2018-02-20T20:09:59.447Z,108.43
2018-02-20T20:12:26.243Z,113.80
2018-02-20T20:14:53.494Z,106.63
2018-02-20T20:17:20.278Z,108.18
2018-02-20T20:19:47.052Z,109.40
2018-02-20T20:22:13.756Z,106.93
2018-02-20T20:24:40.398Z,105.47
2018-02-20T20:27:07.092Z,97.30
2018-02-20T20:29:34.157Z,112.90
2018-02-20T20:32:00.959Z,113.97
2018-02-20T20:34:27.715Z,109.85
2018-02-20T20:36:54.793Z,101.65
2018-02-20T20:39:21.464Z,117.57
2018-02-20T20:41:48.159Z,105.57
2018-02-20T20:44:14.836Z,107.25
2018-02-20T20:46:41.528Z,106.28
2018-02-20T20:49:08.205Z,123.40
2018-02-20T20:51:34.906Z,101.95
2018-02-20T20:54:01.594Z,116.35
2018-02-20T20:56:28.455Z,130.35
2018-02-20T20:58:55.345Z,115.35
2018-02-20T21:01:22.437Z,117.68
2018-02-20T21:03:49.299Z,111.57
2018-02-20T21:06:16.662Z,112.72
2018-02-20T21:08:43.446Z,108.78
2018-02-20T21:11:10.156Z,118.05
2018-02-20T21:13:36.919Z,104.10
2018-02-20T21:16:03.631Z,107.85
2018-02-20T21:18:30.394Z,109.20
2018-02-20T21:20:57.081Z,110.40
2018-02-20T21:23:23.872Z,111.40
2018-02-20T21:25:50.552Z,112.90
2018-02-20T21:28:17.267Z,110.50
2018-02-20T21:30:43.922Z,109.18
2018-02-20T21:33:10.609Z,105.15
2018-02-20T21:35:37.337Z,109.85
2018-02-20T21:38:04.004Z,102.85
2018-02-20T21:40:30.721Z,116.88
2018-02-20T21:42:57.413Z,111.07
2018-02-20T21:45:24.086Z,100.25
2018-02-20T21:47:50.775Z,103.57
2018-02-20T21:50:17.568Z,97.70
2018-02-20T21:52:44.251Z,96.18
2018-02-20T21:55:10.898Z,85.20
2018-02-20T21:57:37.598Z,93.53
2018-02-20T22:00:04.261Z,90.43
2018-02-20T22:02:30.913Z,93.55
2018-02-20T22:04:57.634Z,94.97
2018-02-20T22:07:24.747Z,90.18
2018-02-20T22:09:51.463Z,83.95
2018-02-20T22:12:18.122Z,90.85
2018-02-20T22:14:44.842Z,93.68
2018-02-20T22:17:11.517Z,86.32
2018-02-20T22:19:38.277Z,92.00
2018-02-20T22:22:04.930Z,89.10
2018-02-20T22:24:31.609Z,78.90
2018-02-20T22:26:58.368Z,87.25
2018-02-20T22:29:25.034Z,80.22
2018-02-20T22:31:51.725Z,84.65
2018-02-20T22:34:18.395Z,82.15
2018-02-20T22:36:45.057Z,88.35
2018-02-20T22:39:11.738Z,92.00
2018-02-20T22:41:38.443Z,82.28
2018-02-20T22:44:05.186Z,82.43
2018-02-20T22:46:31.885Z,74.80
2018-02-20T22:48:58.593Z,93.30
2018-02-20T22:51:25.287Z,74.40
2018-02-20T22:53:51.972Z,78.20
2018-02-20T22:56:18.690Z,75.45
2018-02-20T22:58:45.355Z,76.22
2018-02-20T23:01:12.043Z,92.40
2018-02-20T23:03:38.723Z,81.75
2018-02-20T23:06:05.415Z,82.82
2018-02-20T23:08:32.098Z,84.25
2018-02-20T23:10:58.788Z,88.15
2018-02-20T23:13:25.465Z,80.35
2018-02-20T23:15:52.241Z,76.40
2018-02-20T23:18:19.023Z,76.28
2018-02-20T23:20:45.804Z,79.93
2018-02-20T23:23:12.638Z,76.50
2018-02-20T23:25:39.329Z,76.70
2018-02-20T23:28:06.020Z,75.05
2018-02-20T23:30:32.852Z,75.65
2018-02-20T23:32:59.672Z,74.10
2018-02-20T23:35:29.532Z,68.93
2018-02-20T23:37:57.396Z,74.75
2018-02-20T23:40:24.738Z,67.12
2018-02-20T23:42:51.434Z,73.47
2018-02-20T23:45:18.157Z,73.20
2018-02-20T23:47:44.841Z,66.50
2018-02-20T23:50:11.505Z,73.47
2018-02-20T23:52:38.193Z,69.25
2018-02-20T23:55:04.879Z,66.80
2018-02-20T23:57:31.551Z,58.00
2018-02-20T23:59:58.247Z,72.43
